< < Back
Terminal Aerodrome Forecast


Current Version              Previous Versions:   1  2  3  4  5  6  7  8  9  

Terminal Aerodrome Forecast

642
FTUS42 KMLB 272124 AAA
TAFMCO
TAF AMD
KMCO 272124Z 2721/2818 32010KT P6SM FEW040 SCT150 OVC250
     FM280100 VRB04KT P6SM VCSH FEW025 SCT050 BKN120
     FM281400 07006KT P6SM VCSH SCT025 BKN050=

Latest METAR

767
SAUS70 KWBC 280300 RRK
MTRMCO
METAR KMCO 280253Z 34008KT 10SM BKN090 OVC180 23/19 A2989 RMK AO2 SLP118
T02330189 52016


USA.gov is the U.S. government's official web portal to all federal, state and local government web resources and services.